createdAt,value
2018-02-18T00:01:09.398Z,5.34
2018-02-18T00:02:19.196Z,5.44
2018-02-18T00:03:29.286Z,5.42
2018-02-18T00:04:39.397Z,5.39
2018-02-18T00:05:48.938Z,5.41
2018-02-18T00:06:59.001Z,5.44
2018-02-18T00:08:08.796Z,5.45
2018-02-18T00:09:19.865Z,5.48
2018-02-18T00:10:29.668Z,5.44
2018-02-18T00:11:39.189Z,5.45
2018-02-18T00:12:49.250Z,5.49
2018-02-18T00:13:59.311Z,5.46
2018-02-18T00:15:09.107Z,5.52
2018-02-18T00:16:18.903Z,5.48
2018-02-18T00:17:28.960Z,5.51
2018-02-18T00:18:39.029Z,5.44
2018-02-18T00:19:49.084Z,5.45
2018-02-18T00:20:58.893Z,5.44
2018-02-18T00:22:09.013Z,5.45
2018-02-18T00:23:18.830Z,5.45
2018-02-18T00:24:28.097Z,5.34
2018-02-18T00:25:38.149Z,5.48
2018-02-18T00:26:47.962Z,5.49
2018-02-18T00:27:57.495Z,5.39
2018-02-18T00:29:07.557Z,5.52
2018-02-18T00:30:17.092Z,5.52
2018-02-18T00:31:26.882Z,5.54
2018-02-18T00:32:36.159Z,5.49
2018-02-18T00:33:46.216Z,5.52
2018-02-18T00:34:56.295Z,5.48
2018-02-18T00:36:06.342Z,5.48
2018-02-18T00:37:15.861Z,5.48
2018-02-18T00:38:25.657Z,5.52
2018-02-18T00:39:35.777Z,5.46
2018-02-18T00:40:45.866Z,5.49
2018-02-18T00:41:55.949Z,5.36
2018-02-18T00:43:06.012Z,5.45
2018-02-18T00:44:16.123Z,5.48
2018-02-18T00:45:25.968Z,5.39
2018-02-18T00:46:35.770Z,5.41
2018-02-18T00:47:45.844Z,5.41
2018-02-18T00:48:55.938Z,5.27
2018-02-18T00:50:06.053Z,5.28
2018-02-18T00:51:16.118Z,5.31
2018-02-18T00:52:25.921Z,5.3
2018-02-18T00:53:37.852Z,5.33
2018-02-18T00:54:48.366Z,5.33
2018-02-18T00:55:58.162Z,5.33
2018-02-18T00:57:08.226Z,5.33
2018-02-18T00:58:18.025Z,5.39
2018-02-18T00:59:27.906Z,5.34
2018-02-18T01:00:37.704Z,5.3
2018-02-18T01:01:47.822Z,5.36
2018-02-18T01:02:57.881Z,5.41
2018-02-18T01:04:07.686Z,5.33
2018-02-18T01:05:17.542Z,5.41
2018-02-18T01:06:27.321Z,5.28
2018-02-18T01:07:37.378Z,5.26
2018-02-18T01:08:46.904Z,5.31
2018-02-18T01:09:56.978Z,5.28
2018-02-18T01:11:07.037Z,5.24
2018-02-18T01:12:16.560Z,5.21
2018-02-18T01:13:26.685Z,5.15
2018-02-18T01:14:36.488Z,5.26
2018-02-18T01:15:46.279Z,5.33
2018-02-18T01:16:56.079Z,5.27
2018-02-18T01:18:05.988Z,5.2
2018-02-18T01:19:16.043Z,5.2
2018-02-18T01:20:26.112Z,5.1
2018-02-18T01:21:35.894Z,5.2
2018-02-18T01:22:46.012Z,5.16
2018-02-18T01:23:57.432Z,5.16
2018-02-18T01:25:07.298Z,5.12
2018-02-18T01:26:17.366Z,5.06
2018-02-18T01:27:27.429Z,5.03
2018-02-18T01:28:37.523Z,5.09
2018-02-18T01:29:47.486Z,5.09
2018-02-18T01:30:57.272Z,5.12
2018-02-18T01:32:07.066Z,5.12
2018-02-18T01:33:16.870Z,5.16
2018-02-18T01:34:26.930Z,5.18
2018-02-18T01:35:37.023Z,5.21
2018-02-18T01:36:46.812Z,5.21
2018-02-18T01:37:56.895Z,5.18
2018-02-18T01:39:06.708Z,5.16
2018-02-18T01:40:16.775Z,5.1
2018-02-18T01:41:26.830Z,5.16
2018-02-18T01:42:36.879Z,5.13
2018-02-18T01:43:46.413Z,5.18
2018-02-18T01:44:56.199Z,5.16
2018-02-18T01:46:05.747Z,5.18
2018-02-18T01:47:15.022Z,5.13
2018-02-18T01:48:25.073Z,5.16
2018-02-18T01:49:34.862Z,5.03
2018-02-18T01:50:44.397Z,5.21
2018-02-18T01:51:54.459Z,5.15
2018-02-18T01:53:04.558Z,5.12
2018-02-18T01:54:14.413Z,5.09
2018-02-18T01:55:24.195Z,5.18
2018-02-18T01:56:33.730Z,5.15
2018-02-18T01:57:43.561Z,5.05
2018-02-18T01:58:53.375Z,5.16
2018-02-18T02:00:03.180Z,5
2018-02-18T02:01:13.245Z,5.06
2018-02-18T02:02:23.360Z,5.06
2018-02-18T02:03:33.421Z,4.98
2018-02-18T02:04:43.484Z,5.05
2018-02-18T02:05:53.570Z,4.94
2018-02-18T02:07:03.111Z,5.02
2018-02-18T02:08:13.183Z,4.95
2018-02-18T02:09:22.986Z,4.9
2018-02-18T02:10:32.778Z,4.88
2018-02-18T02:11:42.803Z,4.87
2018-02-18T02:12:52.860Z,4.79
2018-02-18T02:14:02.642Z,4.79
2018-02-18T02:15:12.446Z,4.83
2018-02-18T02:16:22.250Z,4.83
2018-02-18T02:17:32.047Z,4.88
2018-02-18T02:18:41.853Z,4.84
2018-02-18T02:19:51.635Z,4.9
2018-02-18T02:21:01.468Z,4.9
2018-02-18T02:22:11.010Z,4.91
2018-02-18T02:23:20.811Z,4.84
2018-02-18T02:24:30.883Z,4.87
2018-02-18T02:25:40.673Z,4.85
2018-02-18T02:26:50.521Z,4.94
2018-02-18T02:28:00.588Z,4.9
2018-02-18T02:29:10.647Z,4.85
2018-02-18T02:30:20.716Z,4.84
2018-02-18T02:31:30.518Z,4.83
2018-02-18T02:32:40.364Z,4.83
2018-02-18T02:33:50.166Z,4.76
2018-02-18T02:35:00.234Z,4.72
2018-02-18T02:36:10.032Z,4.79
2018-02-18T02:37:19.818Z,4.79
2018-02-18T02:38:29.867Z,4.75
2018-02-18T02:39:39.644Z,4.72
2018-02-18T02:40:49.438Z,4.78
2018-02-18T02:41:59.498Z,4.76
2018-02-18T02:43:09.036Z,4.76
2018-02-18T02:44:19.097Z,4.68
2018-02-18T02:45:28.898Z,4.71
2018-02-18T02:46:38.951Z,4.78
2018-02-18T02:47:49.037Z,4.72
2018-02-18T02:48:58.833Z,4.72
2018-02-18T02:50:08.097Z,4.71
2018-02-18T02:51:18.202Z,4.76
2018-02-18T02:52:28.292Z,4.68
2018-02-18T02:53:38.363Z,4.78
2018-02-18T02:54:48.178Z,4.74
2018-02-18T02:55:57.955Z,4.71
2018-02-18T02:57:07.227Z,4.75
2018-02-18T02:58:17.289Z,4.79
2018-02-18T02:59:27.359Z,4.69
2018-02-18T03:00:37.442Z,4.69
2018-02-18T03:01:47.483Z,4.74
2018-02-18T03:02:57.556Z,4.61
2018-02-18T03:04:07.348Z,4.58
2018-02-18T03:36:26.564Z,2.13
2018-02-18T03:37:36.616Z,1.98
2018-02-18T03:38:46.673Z,2.01
2018-02-18T03:39:56.444Z,2.12
2018-02-18T03:41:06.501Z,2.15
2018-02-18T03:42:16.556Z,2.22
2018-02-18T03:43:26.345Z,2.36
2018-02-18T03:44:36.192Z,2.44
2018-02-18T03:45:46.249Z,2.65
2018-02-18T03:46:55.770Z,2.77
2018-02-18T03:48:05.823Z,2.83
2018-02-18T03:49:15.624Z,3.11
2018-02-18T03:50:25.672Z,3.13
2018-02-18T03:51:35.478Z,3.37
2018-02-18T03:52:45.005Z,3.49
2018-02-18T03:53:54.800Z,3.56
2018-02-18T03:55:04.849Z,3.72
2018-02-18T03:56:14.636Z,3.89
2018-02-18T03:57:24.683Z,3.94
2018-02-18T03:58:34.749Z,3.94
2018-02-18T03:59:44.531Z,4.1
2018-02-18T04:00:54.322Z,4.12
2018-02-18T04:02:04.393Z,4.17
2018-02-18T04:03:14.446Z,4.26
2018-02-18T04:04:24.224Z,4.29
2018-02-18T04:05:34.273Z,4.36
2018-02-18T04:06:44.067Z,4.33
2018-02-18T04:07:54.110Z,4.44
2018-02-18T04:09:05.155Z,4.51
2018-02-18T04:10:14.688Z,4.5
2018-02-18T04:11:24.739Z,4.54
2018-02-18T04:12:34.539Z,4.51
2018-02-18T04:13:44.329Z,4.58
2018-02-18T04:14:54.412Z,4.6
2018-02-18T04:16:04.485Z,4.61
2018-02-18T04:17:14.601Z,4.6
2018-02-18T04:18:24.666Z,4.57
2018-02-18T04:19:34.467Z,4.61
2018-02-18T04:20:44.261Z,4.61
2018-02-18T04:21:54.045Z,4.65
2018-02-18T04:23:04.105Z,4.58
2018-02-18T04:24:13.909Z,4.6
2018-02-18T04:25:23.441Z,4.66
2018-02-18T04:26:33.501Z,4.69
2018-02-18T04:27:43.310Z,4.68
2018-02-18T04:28:52.840Z,4.68
2018-02-18T04:30:02.661Z,4.72
2018-02-18T04:31:12.732Z,4.69
2018-02-18T04:32:22.536Z,4.72
2018-02-18T04:33:32.321Z,4.66
2018-02-18T04:34:42.130Z,4.65
2018-02-18T04:35:51.647Z,4.76
2018-02-18T04:37:01.701Z,4.61
2018-02-18T04:38:11.766Z,4.65
2018-02-18T04:39:21.839Z,4.66
2018-02-18T04:40:31.611Z,4.75
2018-02-18T04:41:41.140Z,4.69
2018-02-18T04:42:51.196Z,4.72
2018-02-18T04:44:00.991Z,4.66
2018-02-18T04:45:10.785Z,4.72
2018-02-18T04:46:20.596Z,4.69
2018-02-18T04:47:30.388Z,4.69
2018-02-18T04:48:40.177Z,4.65
2018-02-18T04:49:50.241Z,4.68
2018-02-18T04:51:00.042Z,4.71
2018-02-18T04:52:09.881Z,4.68
2018-02-18T04:53:20.389Z,4.65
2018-02-18T04:54:30.439Z,4.72
2018-02-18T04:55:40.494Z,4.75
2018-02-18T04:56:50.550Z,4.74
2018-02-18T04:58:00.623Z,4.84
2018-02-18T04:59:10.433Z,4.75
2018-02-18T05:00:19.696Z,4.71
2018-02-18T05:01:29.490Z,4.79
2018-02-18T05:02:39.538Z,4.72
2018-02-18T05:03:49.335Z,4.75
2018-02-18T05:04:59.122Z,4.78
2018-02-18T05:06:09.183Z,4.83
2018-02-18T05:07:19.221Z,4.76
2018-02-18T05:08:29.267Z,4.83
2018-02-18T05:09:39.113Z,4.75
2018-02-18T05:10:48.908Z,4.79
2018-02-18T05:11:58.958Z,4.76
2018-02-18T05:13:09.030Z,4.88
2018-02-18T05:14:18.798Z,4.85
2018-02-18T05:15:28.854Z,4.84
2018-02-18T05:16:38.961Z,4.78
2018-02-18T05:17:49.068Z,4.79
2018-02-18T05:18:58.611Z,4.83
2018-02-18T05:20:08.642Z,4.88
2018-02-18T05:21:18.701Z,5
2018-02-18T05:22:28.494Z,4.87
2018-02-18T05:23:38.289Z,4.91
2018-02-18T05:24:48.339Z,4.91
2018-02-18T05:25:58.125Z,4.95
2018-02-18T05:27:08.177Z,4.84
2018-02-18T05:28:17.967Z,4.88
2018-02-18T05:29:28.024Z,4.85
2018-02-18T05:30:38.101Z,4.85
2018-02-18T05:31:48.161Z,4.79
2018-02-18T05:32:58.209Z,4.78
2018-02-18T05:34:07.992Z,4.85
2018-02-18T05:35:17.774Z,4.79
2018-02-18T05:36:27.550Z,4.76
2018-02-18T05:37:36.818Z,4.83
2018-02-18T05:38:46.922Z,4.76
2018-02-18T05:39:56.967Z,4.76
2018-02-18T05:41:06.755Z,4.78
2018-02-18T05:42:16.557Z,4.75
2018-02-18T05:43:26.352Z,4.76
2018-02-18T05:44:35.887Z,4.72
2018-02-18T05:45:45.686Z,4.69
2018-02-18T05:46:55.490Z,4.72
2018-02-18T05:48:05.268Z,4.75
2018-02-18T05:49:15.311Z,4.75
2018-02-18T05:50:25.100Z,4.76
2018-02-18T05:51:34.879Z,4.72
2018-02-18T05:52:44.662Z,4.72
2018-02-18T05:53:54.453Z,4.72
2018-02-18T05:55:04.518Z,4.69
2018-02-18T05:56:14.577Z,4.75
2018-02-18T05:57:24.391Z,4.71
2018-02-18T05:58:34.181Z,4.71
2018-02-18T05:59:44.017Z,4.61
2018-02-18T06:00:53.552Z,4.64
2018-02-18T06:02:03.084Z,4.72
2018-02-18T06:03:13.140Z,4.72
2018-02-18T06:04:22.947Z,4.68
2018-02-18T06:05:32.731Z,4.68
2018-02-18T06:06:42.781Z,4.57
2018-02-18T06:07:52.843Z,4.65
2018-02-18T06:09:02.634Z,4.68
2018-02-18T06:10:12.706Z,4.57
2018-02-18T06:11:22.501Z,4.68
2018-02-18T06:12:32.285Z,4.6
2018-02-18T06:13:41.291Z,4.72
2018-02-18T06:14:51.358Z,4.71
2018-02-18T06:16:01.416Z,4.58
2018-02-18T06:17:11.468Z,4.65
2018-02-18T06:18:21.256Z,4.69
2018-02-18T06:19:31.365Z,4.65
2018-02-18T06:20:40.885Z,4.72
2018-02-18T06:21:50.935Z,4.75
2018-02-18T06:23:01.992Z,4.71
2018-02-18T06:24:12.100Z,4.69
2018-02-18T06:25:21.366Z,4.75
2018-02-18T06:26:31.426Z,4.69
2018-02-18T06:27:41.478Z,4.78
2018-02-18T06:28:51.564Z,4.85
2018-02-18T06:30:01.376Z,4.84
2018-02-18T06:31:11.491Z,4.94
2018-02-18T06:32:21.564Z,5.03
2018-02-18T06:33:31.626Z,5.08
2018-02-18T06:34:40.912Z,5.05
2018-02-18T06:35:50.699Z,5.08
2018-02-18T06:37:00.747Z,5.16
2018-02-18T06:38:10.550Z,5.15
2018-02-18T06:39:20.140Z,5.13
2018-02-18T06:40:29.922Z,5.18
2018-02-18T06:41:39.723Z,5.02
2018-02-18T06:42:49.786Z,5.15
2018-02-18T06:43:59.989Z,5.2
2018-02-18T06:45:09.794Z,5.23
2018-02-18T06:46:19.856Z,5.23
2018-02-18T06:47:29.644Z,5.26
2018-02-18T06:48:39.744Z,5.3
2018-02-18T06:49:49.540Z,5.28
2018-02-18T06:50:59.611Z,5.44
2018-02-18T06:52:09.661Z,5.51
2018-02-18T06:53:19.711Z,5.55
2018-02-18T06:54:29.256Z,5.59
2018-02-18T06:55:39.318Z,5.51
2018-02-18T06:56:49.105Z,5.63
2018-02-18T06:57:58.918Z,5.57
2018-02-18T06:59:08.987Z,5.69
2018-02-18T07:00:18.785Z,5.69
2018-02-18T07:01:28.850Z,5.72
2018-02-18T07:02:38.915Z,5.69
2018-02-18T07:03:48.722Z,5.72
2018-02-18T07:04:58.523Z,5.78
2018-02-18T07:06:08.305Z,5.81
2018-02-18T07:07:18.640Z,5.88
2018-02-18T07:08:28.423Z,5.96
2018-02-18T07:09:38.212Z,6
2018-02-18T07:10:48.263Z,5.99
2018-02-18T07:11:58.069Z,6.15
2018-02-18T07:13:07.352Z,6.15
2018-02-18T07:14:17.152Z,6.2
2018-02-18T07:15:27.211Z,6.24
2018-02-18T07:16:37.295Z,6.31
2018-02-18T07:17:47.108Z,6.33
2018-02-18T07:18:57.162Z,6.37
2018-02-18T07:20:07.248Z,6.52
2018-02-18T07:21:17.296Z,6.44
2018-02-18T07:22:27.347Z,6.44
2018-02-18T07:23:38.876Z,6.51
2018-02-18T07:24:48.948Z,6.52
2018-02-18T07:26:00.934Z,6.7
2018-02-18T07:27:11.002Z,6.73
2018-02-18T07:28:20.812Z,6.75
2018-02-18T07:29:30.666Z,6.73
2018-02-18T07:30:40.600Z,6.76
2018-02-18T07:31:50.673Z,6.65
2018-02-18T07:33:00.458Z,6.76
2018-02-18T07:34:10.008Z,6.67
2018-02-18T07:35:19.538Z,6.7
2018-02-18T07:36:29.335Z,6.68
2018-02-18T07:37:38.620Z,6.76
2018-02-18T07:38:48.409Z,6.68
2018-02-18T07:39:58.236Z,6.85
2018-02-18T07:41:08.293Z,6.9
2018-02-18T07:42:18.076Z,7.01
2018-02-18T07:43:27.891Z,7.05
2018-02-18T07:44:37.961Z,7.16
2018-02-18T07:45:48.037Z,7.22
2018-02-18T07:46:57.843Z,7.33
2018-02-18T07:48:07.908Z,7.33
2018-02-18T07:49:18.011Z,7.41
2018-02-18T07:50:27.568Z,7.55
2018-02-18T07:51:37.361Z,7.61
2018-02-18T07:52:47.451Z,7.71
2018-02-18T07:53:57.548Z,7.71
2018-02-18T07:55:07.354Z,7.78
2018-02-18T07:56:17.243Z,7.85
2018-02-18T07:57:27.035Z,7.85
2018-02-18T07:58:37.091Z,7.96
2018-02-18T07:59:46.362Z,7.98
2018-02-18T08:00:56.443Z,7.89
2018-02-18T08:02:05.989Z,7.96
2018-02-18T08:03:15.776Z,7.89
2018-02-18T08:04:25.632Z,7.88
2018-02-18T08:05:35.429Z,7.89
2018-02-18T08:06:45.234Z,7.88
2018-02-18T08:07:55.333Z,7.85
2018-02-18T08:09:05.421Z,7.91
2018-02-18T08:10:15.545Z,8.17
2018-02-18T08:11:25.103Z,8.22
2018-02-18T08:12:35.275Z,8.49
2018-02-18T08:13:45.151Z,8.6
2018-02-18T08:14:54.968Z,8.83
2018-02-18T08:16:04.770Z,9.01
2018-02-18T08:17:14.298Z,9.03
2018-02-18T08:18:24.366Z,9.2
2018-02-18T08:19:34.175Z,9.14
2018-02-18T08:20:43.708Z,8.97
2018-02-18T08:21:53.242Z,8.92
2018-02-18T08:23:03.325Z,8.89
2018-02-18T08:24:13.105Z,8.83
2018-02-18T08:25:22.935Z,8.77
2018-02-18T08:26:33.009Z,8.74
2018-02-18T08:27:42.819Z,8.76
2018-02-18T08:28:52.911Z,8.62
2018-02-18T08:30:03.000Z,8.6
2018-02-18T08:31:13.076Z,8.6
2018-02-18T08:32:23.132Z,8.49
2018-02-18T08:33:33.237Z,8.52
2018-02-18T08:34:42.788Z,8.53
2018-02-18T08:35:52.661Z,8.6
2018-02-18T08:37:02.458Z,8.62
2018-02-18T08:38:12.527Z,8.65
2018-02-18T08:39:22.690Z,8.72
2018-02-18T08:40:32.231Z,8.69
2018-02-18T08:41:42.307Z,8.68
2018-02-18T08:42:52.377Z,8.57
2018-02-18T08:44:02.186Z,8.64
2018-02-18T08:45:12.243Z,8.6
2018-02-18T08:46:22.313Z,8.57
2018-02-18T08:47:32.397Z,8.65
2018-02-18T08:48:42.226Z,8.69
2018-02-18T08:49:52.297Z,8.71
2018-02-18T08:51:02.095Z,8.76
2018-02-18T08:52:11.903Z,8.86
2018-02-18T08:53:21.704Z,8.87
2018-02-18T08:54:31.519Z,8.94
2018-02-18T08:55:41.571Z,9.12
2018-02-18T08:56:51.752Z,9.08
2018-02-18T08:58:01.575Z,9.09
2018-02-18T08:59:11.406Z,9.26
2018-02-18T09:00:21.458Z,9.27
2018-02-18T09:01:31.526Z,9.26
2018-02-18T09:02:42.312Z,9.27
2018-02-18T09:03:52.132Z,9.3
2018-02-18T09:05:02.204Z,9.41
2018-02-18T09:06:12.256Z,9.45
2018-02-18T09:07:22.332Z,9.55
2018-02-18T09:08:31.877Z,9.57
2018-02-18T09:09:41.674Z,9.66
2018-02-18T09:10:51.218Z,9.64
2018-02-18T09:12:01.290Z,9.64
2018-02-18T09:13:11.184Z,9.63
2018-02-18T09:14:21.261Z,9.64
2018-02-18T09:15:31.461Z,9.63
2018-02-18T09:16:41.007Z,9.62
2018-02-18T09:17:50.550Z,9.6
2018-02-18T09:19:00.353Z,9.64
2018-02-18T09:20:10.163Z,9.63
2018-02-18T09:21:19.703Z,9.6
2018-02-18T09:22:29.772Z,9.63
2018-02-18T09:23:39.584Z,9.53
2018-02-18T09:24:49.687Z,9.41
2018-02-18T09:25:59.751Z,9.29
2018-02-18T09:27:09.555Z,9.12
2018-02-18T09:28:19.435Z,9.19
2018-02-18T09:29:29.257Z,9.14
2018-02-18T09:30:39.054Z,8.97
2018-02-18T09:31:49.136Z,9
2018-02-18T09:32:58.690Z,8.92
2018-02-18T09:34:08.763Z,8.97
2018-02-18T09:35:18.837Z,8.92
2018-02-18T09:36:28.908Z,9.01
2018-02-18T09:37:38.715Z,8.95
2018-02-18T09:38:48.524Z,8.9
2018-02-18T09:39:59.144Z,8.87
2018-02-18T09:41:08.966Z,8.95
2018-02-18T09:42:19.028Z,8.85
2018-02-18T09:43:28.856Z,8.89
2018-02-18T09:44:38.935Z,9.21
2018-02-18T09:45:49.070Z,9.34
2018-02-18T09:46:59.143Z,9.24
2018-02-18T09:48:09.370Z,9.05
2018-02-18T09:49:19.201Z,9.12
2018-02-18T09:50:28.776Z,9.11
2018-02-18T09:51:38.918Z,9.23
2018-02-18T09:52:48.756Z,9.32
2018-02-18T09:53:58.299Z,9.42
2018-02-18T09:55:08.357Z,9.59
2018-02-18T09:56:18.466Z,9.75
2018-02-18T09:57:28.025Z,9.96
2018-02-18T09:58:38.096Z,10.21
2018-02-18T09:59:47.901Z,10.49
2018-02-18T10:00:57.976Z,10.76
2018-02-18T10:02:08.082Z,10.97
2018-02-18T10:03:18.140Z,11.23
2018-02-18T10:04:27.949Z,11.42
2018-02-18T10:05:37.767Z,11.53
2018-02-18T10:06:47.578Z,11.67
2018-02-18T10:07:57.666Z,11.7
2018-02-18T10:09:07.496Z,11.57
2018-02-18T10:10:17.580Z,11.34
2018-02-18T10:11:27.394Z,11.16
2018-02-18T10:12:37.531Z,11.23
2018-02-18T10:13:47.656Z,11.49
2018-02-18T10:14:57.205Z,11.66
2018-02-18T10:16:07.273Z,11.94
2018-02-18T10:17:17.338Z,12.16
2018-02-18T10:18:27.425Z,12.18
2018-02-18T10:19:37.283Z,12.15
2018-02-18T10:20:47.381Z,12.26
2018-02-18T10:21:57.474Z,12.2
2018-02-18T10:23:07.298Z,12.18
2018-02-18T10:24:17.393Z,12.15
2018-02-18T10:25:26.939Z,12.25
2018-02-18T10:26:37.002Z,12.13
2018-02-18T10:27:46.799Z,12.1
2018-02-18T10:28:57.684Z,11.89
2018-02-18T10:30:07.815Z,11.81
2018-02-18T10:31:17.939Z,11.84
2018-02-18T10:32:27.760Z,11.63
2018-02-18T10:33:37.833Z,11.59
2018-02-18T10:34:47.651Z,11.39
2018-02-18T10:35:57.466Z,11.34
2018-02-18T10:37:07.542Z,11.45
2018-02-18T10:38:17.634Z,11.51
2018-02-18T10:39:27.703Z,11.45
2018-02-18T10:40:37.263Z,11.38
2018-02-18T10:41:47.334Z,11.35
2018-02-18T10:42:57.478Z,11.26
2018-02-18T10:44:07.284Z,11.28
2018-02-18T10:45:17.088Z,11.18
2018-02-18T10:46:26.905Z,11.1
2018-02-18T10:47:36.738Z,11.15
2018-02-18T10:48:46.812Z,11.03
2018-02-18T10:49:56.356Z,11.03
2018-02-18T10:51:06.166Z,11.06
2018-02-18T10:52:16.253Z,11
2018-02-18T10:53:25.797Z,10.85
2018-02-18T10:54:35.930Z,10.9
2018-02-18T10:55:46.000Z,10.8
2018-02-18T10:56:56.089Z,10.77
2018-02-18T10:58:05.894Z,10.76
2018-02-18T10:59:15.701Z,10.66
2018-02-18T11:00:25.212Z,10.72
2018-02-18T11:01:35.063Z,10.72
2018-02-18T11:02:44.883Z,10.76
2018-02-18T11:03:54.721Z,10.84
2018-02-18T11:05:04.362Z,10.8
2018-02-18T11:06:14.232Z,10.88
2018-02-18T11:07:24.319Z,10.91
2018-02-18T11:08:34.138Z,10.91
2018-02-18T11:09:43.967Z,10.9
2018-02-18T11:10:54.068Z,10.83
2018-02-18T11:12:04.026Z,10.8
2018-02-18T11:13:14.125Z,10.66
2018-02-18T11:14:23.657Z,10.63
2018-02-18T11:15:33.200Z,10.49
2018-02-18T11:16:43.000Z,10.41
2018-02-18T11:17:53.094Z,10.35
2018-02-18T11:19:03.164Z,10.23
2018-02-18T11:20:13.241Z,10.31
2018-02-18T11:21:22.797Z,10.21
2018-02-18T11:22:32.859Z,10.21
2018-02-18T11:23:43.066Z,10.13
2018-02-18T11:24:52.378Z,10.08
2018-02-18T11:26:02.452Z,10.08
2018-02-18T11:27:12.294Z,9.98
2018-02-18T11:28:22.391Z,9.95
2018-02-18T11:29:32.464Z,9.75
2018-02-18T11:30:42.533Z,9.72
2018-02-18T11:31:52.351Z,9.66
2018-02-18T11:33:02.444Z,9.6
2018-02-18T11:34:12.536Z,9.63
2018-02-18T11:35:22.600Z,9.5
2018-02-18T11:36:32.137Z,9.63
2018-02-18T11:37:41.937Z,9.62
2018-02-18T11:38:51.749Z,9.66
2018-02-18T11:40:01.295Z,9.63
2018-02-18T11:41:11.427Z,9.59
2018-02-18T11:42:21.495Z,9.57
2018-02-18T11:43:31.558Z,9.64
2018-02-18T11:44:41.362Z,9.81
2018-02-18T11:45:51.426Z,9.72
2018-02-18T11:47:01.489Z,9.8
2018-02-18T11:48:11.313Z,9.81
2018-02-18T11:49:21.376Z,9.8
2018-02-18T11:50:31.181Z,9.84
2018-02-18T11:51:41.274Z,9.81
2018-02-18T11:52:51.104Z,9.84
2018-02-18T11:54:00.907Z,9.81
2018-02-18T11:55:11.026Z,9.75
2018-02-18T11:56:21.116Z,9.75
2018-02-18T11:57:31.203Z,9.81
2018-02-18T11:58:41.281Z,9.71
2018-02-18T11:59:51.355Z,9.77
2018-02-18T12:01:01.473Z,9.8
2018-02-18T12:02:11.033Z,9.74
2018-02-18T12:03:21.092Z,9.74
2018-02-18T12:04:30.903Z,9.6
2018-02-18T12:05:40.725Z,9.7
2018-02-18T12:06:50.336Z,9.64
2018-02-18T12:08:00.154Z,9.66
2018-02-18T12:09:10.213Z,9.63
2018-02-18T12:10:20.279Z,9.62
2018-02-18T12:11:30.256Z,9.57
2018-02-18T12:12:40.208Z,9.66
2018-02-18T12:13:50.318Z,9.7
2018-02-18T12:15:00.128Z,9.63
2018-02-18T12:16:10.177Z,9.53
2018-02-18T12:17:19.997Z,9.62
2018-02-18T12:18:29.871Z,9.56
2018-02-18T12:19:39.412Z,9.53
2018-02-18T12:20:49.238Z,9.42
2018-02-18T12:21:59.299Z,9.29
2018-02-18T12:23:09.428Z,9.32
2018-02-18T12:24:18.981Z,9.23
2018-02-18T12:25:28.820Z,9.29
2018-02-18T12:26:38.380Z,9.12
2018-02-18T12:27:48.443Z,9.08
2018-02-18T12:28:58.265Z,9.11
2018-02-18T12:30:08.323Z,9.09
2018-02-18T12:31:18.135Z,8.95
2018-02-18T12:32:27.969Z,8.9
2018-02-18T12:33:38.038Z,8.9
2018-02-18T12:34:47.883Z,8.92
2018-02-18T12:35:57.962Z,8.85
2018-02-18T12:37:07.556Z,8.92
2018-02-18T12:38:17.581Z,8.74
2018-02-18T12:39:27.400Z,8.71
2018-02-18T12:40:37.207Z,8.86
2018-02-18T12:41:47.304Z,8.77
2018-02-18T12:42:57.105Z,8.67
2018-02-18T12:44:07.224Z,8.68
2018-02-18T12:45:16.520Z,8.6
2018-02-18T12:46:26.598Z,8.68
2018-02-18T12:47:36.734Z,8.54
2018-02-18T12:48:46.543Z,8.57
2018-02-18T12:49:56.613Z,8.57
2018-02-18T12:51:06.425Z,8.58
2018-02-18T12:52:16.017Z,8.57
2018-02-18T12:53:25.858Z,8.54
2018-02-18T12:54:35.971Z,8.69
2018-02-18T12:55:46.170Z,8.65
2018-02-18T12:56:56.247Z,8.67
2018-02-18T12:58:06.082Z,8.62
2018-02-18T12:59:15.638Z,8.57
2018-02-18T13:00:25.443Z,8.6
2018-02-18T13:01:36.145Z,8.58
2018-02-18T13:02:46.476Z,8.43
2018-02-18T13:03:56.555Z,8.58
2018-02-18T13:05:06.859Z,8.44
2018-02-18T13:06:16.428Z,8.42
2018-02-18T13:07:26.269Z,8.53
2018-02-18T13:08:36.080Z,8.43
2018-02-18T13:09:46.186Z,8.46
2018-02-18T13:10:55.468Z,8.44
2018-02-18T13:12:05.285Z,8.42
2018-02-18T13:13:15.095Z,8.46
2018-02-18T13:14:25.227Z,8.49
2018-02-18T13:15:35.335Z,8.47
2018-02-18T13:16:45.588Z,8.47
2018-02-18T13:17:55.703Z,8.54
2018-02-18T13:19:05.781Z,8.53
2018-02-18T13:20:15.587Z,8.6
2018-02-18T13:21:25.415Z,8.64
2018-02-18T13:22:35.286Z,8.69
2018-02-18T13:23:45.100Z,8.76
2018-02-18T13:24:54.955Z,8.8
2018-02-18T13:26:05.041Z,8.68
2018-02-18T13:27:14.884Z,8.77
2018-02-18T13:28:25.006Z,8.8
2018-02-18T13:29:35.102Z,8.72
2018-02-18T13:30:45.075Z,8.82
2018-02-18T13:31:55.146Z,8.83
2018-02-18T13:33:05.276Z,8.82
2018-02-18T13:34:15.375Z,8.76
2018-02-18T13:35:25.196Z,8.69
2018-02-18T13:36:35.285Z,8.72
2018-02-18T13:37:46.507Z,8.69
2018-02-18T13:38:56.614Z,8.69
2018-02-18T13:49:10.909Z,8.9
2018-02-18T13:50:21.001Z,8.85
2018-02-18T13:51:30.556Z,8.77
2018-02-18T13:52:40.382Z,8.76
2018-02-18T13:53:49.954Z,8.68
2018-02-18T13:55:00.061Z,8.69
2018-02-18T13:56:09.893Z,8.74
2018-02-18T13:57:19.974Z,8.69
2018-02-18T13:58:31.179Z,8.62
2018-02-18T13:59:41.028Z,8.57
2018-02-18T14:00:50.835Z,8.65
2018-02-18T14:02:01.203Z,8.72
2018-02-18T14:03:10.774Z,8.54
2018-02-18T14:04:20.958Z,8.44
2018-02-18T14:05:31.052Z,8.42
2018-02-18T14:06:40.888Z,8.4
2018-02-18T14:07:50.704Z,8.35
2018-02-18T14:09:00.760Z,8.36
2018-02-18T14:10:10.845Z,8.28
2018-02-18T14:11:20.934Z,8.28
2018-02-18T14:12:31.007Z,8.16
2018-02-18T14:13:40.271Z,8.14
2018-02-18T14:14:50.124Z,8.07
2018-02-18T14:15:59.942Z,8.01
2018-02-18T14:17:10.015Z,8.04
2018-02-18T14:18:19.877Z,8.01
2018-02-18T14:19:30.000Z,7.91
2018-02-18T14:20:39.808Z,7.83
2018-02-18T14:21:49.612Z,7.92
2018-02-18T14:22:59.150Z,7.83
2018-02-18T14:24:09.242Z,7.92
2018-02-18T14:25:19.048Z,7.85
2018-02-18T14:26:29.123Z,7.83
2018-02-18T14:27:38.938Z,7.83
2018-02-18T14:28:48.480Z,7.88
2018-02-18T14:29:58.315Z,7.82
2018-02-18T14:31:08.136Z,7.83
2018-02-18T14:32:17.668Z,7.86
2018-02-18T14:33:27.733Z,7.83
2018-02-18T14:34:37.798Z,7.77
2018-02-18T14:35:47.591Z,7.78
2018-02-18T14:36:57.156Z,7.61
2018-02-18T14:38:06.985Z,7.67
2018-02-18T14:39:17.060Z,7.64
2018-02-18T14:40:26.881Z,7.59
2018-02-18T14:41:37.004Z,7.56
2018-02-18T14:42:46.813Z,7.63
2018-02-18T14:43:56.340Z,7.54
2018-02-18T14:45:06.140Z,7.56
2018-02-18T14:46:16.207Z,7.48
2018-02-18T14:47:26.019Z,7.52
2018-02-18T14:48:35.848Z,7.4
2018-02-18T14:49:45.678Z,7.36
2018-02-18T14:50:55.760Z,7.37
2018-02-18T14:52:05.319Z,7.31
2018-02-18T14:53:15.509Z,7.37
2018-02-18T14:54:25.343Z,7.18
2018-02-18T14:55:35.742Z,7.3
2018-02-18T14:56:45.958Z,7.27
2018-02-18T14:57:56.064Z,7.22
2018-02-18T14:59:05.405Z,7.19
2018-02-18T15:00:15.558Z,7.22
2018-02-18T15:01:25.639Z,7.22
2018-02-18T15:02:35.747Z,7.22
2018-02-18T15:03:45.829Z,7.21
2018-02-18T15:04:55.420Z,7.26
2018-02-18T15:06:05.223Z,7.16
2018-02-18T15:07:15.389Z,7.19
2018-02-18T15:08:25.472Z,7.23
2018-02-18T15:09:35.047Z,7.19
2018-02-18T15:10:44.633Z,7.21
2018-02-18T15:11:54.789Z,7.22
2018-02-18T15:13:04.606Z,7.33
2018-02-18T15:14:14.674Z,7.29
2018-02-18T15:15:24.228Z,7.23
2018-02-18T15:16:34.379Z,7.27
2018-02-18T15:17:43.913Z,7.23
2018-02-18T15:18:53.735Z,7.18
2018-02-18T15:20:03.544Z,7.16
2018-02-18T15:21:13.413Z,7.15
2018-02-18T15:22:23.492Z,7.16
2018-02-18T15:23:33.409Z,7.19
2018-02-18T15:24:43.294Z,7.16
2018-02-18T15:25:53.387Z,7.16
2018-02-18T15:27:03.469Z,7.13
2018-02-18T15:28:13.547Z,7.05
2018-02-18T15:29:23.360Z,6.98
2018-02-18T15:30:33.450Z,6.98
2018-02-18T15:31:43.524Z,6.98
2018-02-18T15:32:53.309Z,6.98
2018-02-18T15:34:03.383Z,7
2018-02-18T15:35:12.977Z,6.97
2018-02-18T15:36:23.058Z,7.04
2018-02-18T15:37:33.117Z,6.95
2018-02-18T15:38:43.212Z,6.88
2018-02-18T15:39:53.020Z,6.91
2018-02-18T15:41:02.832Z,6.83
2018-02-18T15:42:12.927Z,6.79
2018-02-18T15:43:23.000Z,6.91
2018-02-18T15:44:32.821Z,6.85
2018-02-18T15:45:42.937Z,6.86
2018-02-18T15:46:52.757Z,6.94
2018-02-18T15:48:02.924Z,6.85
2018-02-18T15:49:13.007Z,6.85
2018-02-18T15:50:22.446Z,6.82
2018-02-18T15:51:32.534Z,6.79
2018-02-18T15:52:42.092Z,6.76
2018-02-18T15:53:52.182Z,6.75
2018-02-18T15:55:02.262Z,6.64
2018-02-18T15:56:12.345Z,6.78
2018-02-18T15:57:22.150Z,6.75
2018-02-18T15:58:32.280Z,6.78
2018-02-18T15:59:42.330Z,6.7
2018-02-18T16:00:52.423Z,6.76
2018-02-18T16:02:02.534Z,6.83
2018-02-18T16:03:12.365Z,6.76
2018-02-18T16:04:22.174Z,6.7
2018-02-18T16:05:32.263Z,6.75
2018-02-18T16:06:42.355Z,6.73
2018-02-18T16:07:52.454Z,6.78
2018-02-18T16:09:02.534Z,6.72
2018-02-18T16:10:12.649Z,6.73
2018-02-18T16:11:22.468Z,6.68